Time;durP1;ratioP1;P1;durP2;ratioP2;P2;SDS_P1;SDS_P2;PMS_P1;PMS_P2;Temp;Humidity;BMP_temperature;BMP_pressure;BME280_temperature;BME280_humidity;BME280_pressure;Samples;Min_cycle;Max_cycle;Signal;HPM_P1;HPM_P2
2022/11/23 00:01:47;;;;;;;0.30;0.27;;;4.00;99.90;;;;;;5136773;27;20443;-79
2022/11/23 00:04:14;;;;;;;0.30;0.20;;;4.00;99.90;;;;;;5136554;27;20463;-79
2022/11/23 00:06:41;;;;;;;0.43;0.43;;;4.00;99.90;;;;;;5136326;27;20938;-79
2022/11/23 00:09:09;;;;;;;0.30;0.20;;;4.00;99.90;;;;;;5136304;27;20449;-79
2022/11/23 00:11:37;;;;;;;0.30;0.30;;;4.10;99.90;;;;;;5136505;27;20450;-79
2022/11/23 00:14:04;;;;;;;0.40;0.30;;;4.00;99.90;;;;;;5136418;27;20463;-79
2022/11/23 00:16:31;;;;;;;0.30;0.20;;;4.10;99.90;;;;;;5136480;27;20465;-79
2022/11/23 00:19:00;;;;;;;0.40;0.30;;;4.00;99.90;;;;;;5136254;27;20470;-79
2022/11/23 00:21:28;;;;;;;0.30;0.20;;;4.10;99.90;;;;;;5136518;27;20438;-79
2022/11/23 00:23:55;;;;;;;0.50;0.50;;;4.10;99.90;;;;;;5136232;27;20829;-79
2022/11/23 00:26:22;;;;;;;0.30;0.20;;;4.00;99.90;;;;;;5136204;27;20480;-79
2022/11/23 00:28:50;;;;;;;0.30;0.30;;;4.00;99.90;;;;;;5136219;27;20831;-79
2022/11/23 00:31:19;;;;;;;0.30;0.30;;;4.00;99.90;;;;;;5136186;27;20534;-79
2022/11/23 00:33:49;;;;;;;0.30;0.30;;;4.00;99.90;;;;;;5134874;27;20463;-79
2022/11/23 00:36:16;;;;;;;0.30;0.30;;;4.00;99.90;;;;;;5136314;27;20435;-79
2022/11/23 00:38:44;;;;;;;0.30;0.20;;;4.00;99.90;;;;;;5136628;27;20445;-79
2022/11/23 00:41:13;;;;;;;0.33;0.27;;;4.00;99.90;;;;;;5135692;27;20941;-79
2022/11/23 00:43:40;;;;;;;0.30;0.20;;;3.90;99.90;;;;;;5135810;27;20463;-79
2022/11/23 00:46:12;;;;;;;0.30;0.30;;;4.00;99.90;;;;;;5136062;27;20852;-79
2022/11/23 00:48:39;;;;;;;0.30;0.30;;;4.00;99.90;;;;;;5135810;27;20428;-79
2022/11/23 00:51:08;;;;;;;0.30;0.30;;;4.00;99.90;;;;;;5136360;27;20442;-79
2022/11/23 00:53:35;;;;;;;0.40;0.40;;;4.00;99.90;;;;;;5135689;27;20466;-79
2022/11/23 00:56:02;;;;;;;1.80;0.47;;;4.00;99.90;;;;;;5136239;27;20466;-79
2022/11/23 00:58:29;;;;;;;1.33;0.40;;;4.00;99.90;;;;;;5135352;27;20445;-79
2022/11/23 01:01:04;;;;;;;0.30;0.30;;;4.00;99.90;;;;;;5135604;27;20450;-79
2022/11/23 01:03:32;;;;;;;0.50;0.40;;;4.00;99.90;;;;;;5135422;27;20458;-79
2022/11/23 01:06:04;;;;;;;0.30;0.30;;;4.00;99.90;;;;;;5135096;27;21019;-79
2022/11/23 01:08:31;;;;;;;0.40;0.30;;;4.00;99.90;;;;;;5135414;27;20446;-79
2022/11/23 01:11:02;;;;;;;0.30;0.30;;;4.00;99.90;;;;;;5135409;27;20449;-79
2022/11/23 01:13:29;;;;;;;0.30;0.20;;;4.00;99.90;;;;;;5135283;27;20550;-79
2022/11/23 01:15:56;;;;;;;0.40;0.33;;;4.10;99.90;;;;;;5135298;27;20457;-79
2022/11/23 01:18:23;;;;;;;0.40;0.30;;;4.10;99.90;;;;;;5135137;27;20929;-79
2022/11/23 01:20:51;;;;;;;0.30;0.20;;;4.20;99.90;;;;;;5134993;27;20482;-79
2022/11/23 01:23:18;;;;;;;0.77;0.40;;;4.30;99.90;;;;;;5135136;27;20458;-79
2022/11/23 01:25:45;;;;;;;0.40;0.37;;;4.40;99.90;;;;;;5134740;27;20479;-79
2022/11/23 01:28:12;;;;;;;0.30;0.20;;;4.40;99.90;;;;;;5135052;27;20443;-79
2022/11/23 01:30:39;;;;;;;0.40;0.40;;;4.40;99.90;;;;;;5135295;27;20442;-79
2022/11/23 01:33:06;;;;;;;0.30;0.30;;;4.40;99.90;;;;;;5134849;27;20454;-79
2022/11/23 01:35:32;;;;;;;0.30;0.20;;;4.40;99.90;;;;;;5135184;27;20439;-79
2022/11/23 01:38:01;;;;;;;0.30;0.30;;;4.40;99.90;;;;;;5134932;27;20443;-79
2022/11/23 01:40:27;;;;;;;1.53;0.60;;;4.30;99.90;;;;;;5135402;27;20443;-79
2022/11/23 01:42:57;;;;;;;1.27;1.27;;;4.30;99.90;;;;;;5134808;27;20452;-80
2022/11/23 01:45:36;;;;;;;0.30;0.20;;;4.20;99.90;;;;;;5134375;27;20479;-79
2022/11/23 01:48:05;;;;;;;0.30;0.20;;;4.20;99.90;;;;;;5134774;27;20435;-79
2022/11/23 01:50:32;;;;;;;0.30;0.30;;;4.20;99.90;;;;;;5134676;27;20443;-79
2022/11/23 01:53:00;;;;;;;0.30;0.20;;;4.10;99.90;;;;;;5134604;27;20898;-79
2022/11/23 01:55:28;;;;;;;0.40;0.30;;;4.10;99.90;;;;;;5134692;27;20469;-79
2022/11/23 01:57:55;;;;;;;1.73;0.63;;;4.00;99.90;;;;;;5134635;27;20492;-79
2022/11/23 02:00:22;;;;;;;0.30;0.30;;;4.00;99.90;;;;;;5134284;27;20945;-79
2022/11/23 02:02:55;;;;;;;0.30;0.30;;;4.00;99.90;;;;;;5134521;27;20446;-79
2022/11/23 02:05:24;;;;;;;0.30;0.20;;;3.90;99.90;;;;;;5134410;27;20861;-80
2022/11/23 02:07:51;;;;;;;0.30;0.30;;;3.90;99.90;;;;;;5134513;27;20821;-79
2022/11/23 02:10:21;;;;;;;0.30;0.20;;;3.90;99.90;;;;;;5134209;27;20439;-79
2022/11/23 02:12:48;;;;;;;0.50;0.43;;;3.80;99.90;;;;;;5134454;27;20448;-79
2022/11/23 02:15:15;;;;;;;0.30;0.20;;;3.80;99.90;;;;;;5134054;27;20454;-79
2022/11/23 02:17:43;;;;;;;0.30;0.30;;;3.80;99.90;;;;;;5134385;27;20450;-79
2022/11/23 02:20:12;;;;;;;0.30;0.20;;;3.80;99.90;;;;;;5133978;27;20483;-79
2022/11/23 02:22:47;;;;;;;0.30;0.30;;;3.90;99.90;;;;;;5134334;27;20450;-79
2022/11/23 02:25:20;;;;;;;0.30;0.30;;;3.80;99.90;;;;;;5134267;27;20482;-79
2022/11/23 02:27:49;;;;;;;0.30;0.30;;;3.80;99.90;;;;;;5134034;27;20894;-79
2022/11/23 02:30:16;;;;;;;0.30;0.30;;;3.80;99.90;;;;;;5134249;27;20438;-79
2022/11/23 02:32:44;;;;;;;0.40;0.40;;;3.80;99.90;;;;;;5134762;27;20443;-79
2022/11/23 02:35:11;;;;;;;0.83;0.40;;;3.80;99.90;;;;;;5134105;27;20471;-79
2022/11/23 02:37:39;;;;;;;9.80;0.90;;;3.80;99.90;;;;;;5135300;27;20808;-79
2022/11/23 02:40:13;;;;;;;0.40;0.30;;;3.70;99.90;;;;;;5134172;27;20465;-79
2022/11/23 02:42:40;;;;;;;0.40;0.40;;;3.70;99.90;;;;;;5134204;27;20430;-79
2022/11/23 02:45:18;;;;;;;0.30;0.30;;;3.70;99.90;;;;;;5133687;27;20993;-79
2022/11/23 02:47:47;;;;;;;0.30;0.20;;;3.60;99.90;;;;;;5134134;27;20802;-79
2022/11/23 02:50:14;;;;;;;0.40;0.30;;;3.70;99.90;;;;;;5133743;27;20934;-79
2022/11/23 02:52:41;;;;;;;0.30;0.30;;;3.60;99.90;;;;;;5134033;27;20442;-79
2022/11/23 02:55:09;;;;;;;0.93;0.93;;;3.60;99.90;;;;;;5133695;27;21022;-79
2022/11/23 02:57:36;;;;;;;0.30;0.20;;;3.60;99.90;;;;;;5137353;27;20450;-79
2022/11/23 03:00:04;;;;;;;0.60;0.60;;;3.60;99.90;;;;;;5138005;27;20445;-79
2022/11/23 03:02:32;;;;;;;0.30;0.30;;;3.60;99.90;;;;;;5137636;27;20564;-79
2022/11/23 03:04:58;;;;;;;0.30;0.20;;;3.50;99.90;;;;;;5137733;27;20470;-79
2022/11/23 03:07:25;;;;;;;0.30;0.30;;;3.50;99.90;;;;;;5137852;27;20439;-79
2022/11/23 03:09:52;;;;;;;0.30;0.30;;;3.40;99.90;;;;;;5137766;27;20973;-79
2022/11/23 03:12:18;;;;;;;0.30;0.30;;;3.40;99.90;;;;;;5137405;27;20434;-79
2022/11/23 03:14:45;;;;;;;0.50;0.50;;;3.40;99.90;;;;;;5137602;27;20462;-79
2022/11/23 03:17:12;;;;;;;0.77;0.47;;;3.40;99.90;;;;;;5137619;27;20435;-79
2022/11/23 03:19:40;;;;;;;0.30;0.30;;;3.30;99.90;;;;;;5137402;27;20474;-79
2022/11/23 03:22:07;;;;;;;0.30;0.20;;;3.40;99.90;;;;;;5137283;27;20966;-79
2022/11/23 03:24:34;;;;;;;0.40;0.40;;;3.40;99.90;;;;;;5137143;27;20471;-79
2022/11/23 03:27:01;;;;;;;0.30;0.30;;;3.40;99.90;;;;;;5137065;27;20855;-79
2022/11/23 03:29:27;;;;;;;0.30;0.30;;;3.30;99.90;;;;;;5137376;27;20443;-79
2022/11/23 03:31:54;;;;;;;0.30;0.27;;;3.30;99.90;;;;;;5137057;27;20961;-79
2022/11/23 03:34:21;;;;;;;0.30;0.30;;;3.30;99.90;;;;;;5137228;27;20475;-79
2022/11/23 03:36:49;;;;;;;0.30;0.30;;;3.30;99.90;;;;;;5136949;27;20962;-79
2022/11/23 03:39:16;;;;;;;0.40;0.33;;;3.30;99.90;;;;;;5136916;27;20804;-79
2022/11/23 03:41:43;;;;;;;0.30;0.20;;;3.30;99.90;;;;;;5136849;27;20443;-79
2022/11/23 03:44:10;;;;;;;0.30;0.30;;;3.30;99.90;;;;;;5137101;27;20536;-79
2022/11/23 03:46:36;;;;;;;0.30;0.30;;;3.30;99.90;;;;;;5137003;27;20474;-79
2022/11/23 03:49:03;;;;;;;0.30;0.30;;;3.30;99.90;;;;;;5137040;27;20443;-79
2022/11/23 03:51:30;;;;;;;0.40;0.40;;;3.30;99.90;;;;;;5136990;27;20446;-79
2022/11/23 03:53:58;;;;;;;0.30;0.30;;;3.30;99.90;;;;;;5136886;27;20466;-79
2022/11/23 03:56:25;;;;;;;0.30;0.30;;;3.20;99.90;;;;;;5136881;27;20442;-79
2022/11/23 03:58:52;;;;;;;0.60;0.60;;;3.30;99.90;;;;;;5136871;27;20443;-79
2022/11/23 04:01:18;;;;;;;0.30;0.20;;;3.30;99.90;;;;;;5136531;27;20446;-79
2022/11/23 04:03:45;;;;;;;0.30;0.30;;;3.30;99.90;;;;;;5136650;27;20465;-79
2022/11/23 04:06:12;;;;;;;0.30;0.30;;;3.40;99.90;;;;;;5136764;27;20478;-79
2022/11/23 04:08:38;;;;;;;0.30;0.30;;;3.40;99.90;;;;;;5136706;27;20550;-79
2022/11/23 04:11:07;;;;;;;0.30;0.20;;;3.50;99.90;;;;;;5136878;27;20442;-79
2022/11/23 04:13:33;;;;;;;0.30;0.30;;;3.50;99.90;;;;;;5136211;27;20977;-79
2022/11/23 04:16:00;;;;;;;0.30;0.30;;;3.60;99.90;;;;;;5136810;27;20435;-79
2022/11/23 04:18:27;;;;;;;0.30;0.30;;;3.70;99.90;;;;;;5136478;27;20447;-79
2022/11/23 04:20:54;;;;;;;0.30;0.20;;;3.70;99.90;;;;;;5136246;27;20466;-79
2022/11/23 04:23:21;;;;;;;0.30;0.30;;;3.80;99.90;;;;;;5136566;27;20798;-79
2022/11/23 04:25:47;;;;;;;0.30;0.30;;;3.80;99.90;;;;;;5135952;27;20481;-79
2022/11/23 04:28:15;;;;;;;0.30;0.30;;;3.80;99.90;;;;;;5136290;27;20447;-79
2022/11/23 04:30:42;;;;;;;0.30;0.30;;;3.80;99.90;;;;;;5136202;27;20455;-79
2022/11/23 04:33:09;;;;;;;0.33;0.33;;;3.80;99.90;;;;;;5136118;27;20439;-79
2022/11/23 04:35:36;;;;;;;0.30;0.20;;;3.80;99.90;;;;;;5136129;27;20441;-79
2022/11/23 04:38:03;;;;;;;0.40;0.40;;;3.90;99.90;;;;;;5136105;27;20495;-79
2022/11/23 04:40:30;;;;;;;0.30;0.20;;;3.90;99.90;;;;;;5135957;27;20462;-79
2022/11/23 04:42:57;;;;;;;0.30;0.30;;;3.90;99.90;;;;;;5136002;27;20447;-79
2022/11/23 04:45:25;;;;;;;0.40;0.30;;;3.90;99.90;;;;;;5135821;27;20523;-79
2022/11/23 04:47:52;;;;;;;0.30;0.30;;;3.90;99.90;;;;;;5135559;27;20946;-79
2022/11/23 04:50:19;;;;;;;0.30;0.30;;;3.80;99.90;;;;;;5135846;27;20438;-79
2022/11/23 04:52:46;;;;;;;0.30;0.30;;;3.80;99.90;;;;;;5135495;27;20948;-79
2022/11/23 04:55:12;;;;;;;0.30;0.30;;;3.80;99.90;;;;;;5135653;27;20474;-79
2022/11/23 04:57:39;;;;;;;0.40;0.40;;;3.70;99.90;;;;;;5135697;27;20446;-79
2022/11/23 05:00:07;;;;;;;0.30;0.30;;;3.70;99.90;;;;;;5135607;27;20443;-79
2022/11/23 05:02:35;;;;;;;0.30;0.20;;;3.70;99.90;;;;;;5135288;27;20933;-79
2022/11/23 05:05:02;;;;;;;0.77;0.77;;;3.70;99.90;;;;;;5135108;27;21005;-79
2022/11/23 05:07:29;;;;;;;0.30;0.20;;;3.70;99.90;;;;;;5135457;27;20478;-79
2022/11/23 05:09:55;;;;;;;0.30;0.30;;;3.70;99.90;;;;;;5135502;27;20442;-79
2022/11/23 05:12:22;;;;;;;0.30;0.30;;;3.80;99.90;;;;;;5135338;27;20446;-79
2022/11/23 05:14:49;;;;;;;0.30;0.30;;;3.90;99.90;;;;;;5134978;27;20458;-79
2022/11/23 05:17:16;;;;;;;0.30;0.20;;;3.90;99.90;;;;;;5135553;27;20438;-79
2022/11/23 05:19:44;;;;;;;0.30;0.20;;;4.00;99.90;;;;;;5134448;27;20479;-79
2022/11/23 05:22:11;;;;;;;0.50;0.33;;;4.10;99.90;;;;;;5134911;27;20999;-79
2022/11/23 05:24:37;;;;;;;0.30;0.30;;;4.10;99.90;;;;;;5135129;27;20471;-79
2022/11/23 05:27:04;;;;;;;0.30;0.30;;;4.10;99.90;;;;;;5134735;27;20881;-77
2022/11/23 05:29:31;;;;;;;0.30;0.20;;;4.20;99.90;;;;;;5135100;27;20446;-77
2022/11/23 05:31:57;;;;;;;0.50;0.30;;;4.20;99.90;;;;;;5135062;27;20557;-77
2022/11/23 05:34:24;;;;;;;0.30;0.30;;;4.20;99.90;;;;;;5134856;27;20969;-77
2022/11/23 05:36:52;;;;;;;0.30;0.20;;;4.30;99.90;;;;;;5134957;27;20435;-77
2022/11/23 05:39:19;;;;;;;0.30;0.30;;;4.20;99.90;;;;;;5134901;27;20434;-77
2022/11/23 05:41:46;;;;;;;0.30;0.30;;;4.20;99.90;;;;;;5134898;27;20495;-77
2022/11/23 05:44:12;;;;;;;0.30;0.20;;;4.30;99.90;;;;;;5134751;27;20463;-77
2022/11/23 05:46:39;;;;;;;0.30;0.30;;;4.30;99.90;;;;;;5134726;27;20846;-77
2022/11/23 05:49:06;;;;;;;0.30;0.30;;;4.20;99.90;;;;;;5134426;27;20960;-77
2022/11/23 05:51:33;;;;;;;0.40;0.30;;;4.20;99.90;;;;;;5134720;27;20443;-77
2022/11/23 05:54:01;;;;;;;0.40;0.40;;;4.20;99.90;;;;;;5134401;27;20991;-77
2022/11/23 05:56:28;;;;;;;0.53;0.40;;;4.20;99.90;;;;;;5134663;27;20447;-77
2022/11/23 05:58:55;;;;;;;0.40;0.30;;;4.30;99.90;;;;;;5134630;27;20439;-80
2022/11/23 06:01:22;;;;;;;0.30;0.30;;;4.30;99.90;;;;;;5134286;27;20610;-80
2022/11/23 06:03:49;;;;;;;0.30;0.30;;;4.30;99.90;;;;;;5135209;27;20485;-80
2022/11/23 06:06:16;;;;;;;0.40;0.30;;;4.30;99.90;;;;;;5134489;27;20478;-80
2022/11/23 06:08:43;;;;;;;0.60;0.60;;;4.30;99.90;;;;;;5134442;27;20435;-80
2022/11/23 06:11:11;;;;;;;0.30;0.30;;;4.30;99.90;;;;;;5134467;27;20447;-79
2022/11/23 06:13:38;;;;;;;2.23;1.07;;;4.30;99.90;;;;;;5134312;27;20834;-80
2022/11/23 06:16:05;;;;;;;0.30;0.20;;;4.30;99.90;;;;;;5134650;27;20445;-80
2022/11/23 06:18:32;;;;;;;0.30;0.30;;;4.30;99.90;;;;;;5134042;27;20454;-79
2022/11/23 06:21:00;;;;;;;1.43;0.50;;;4.30;99.90;;;;;;5135191;27;20450;-79
2022/11/23 06:23:27;;;;;;;0.30;0.20;;;4.30;99.90;;;;;;5133958;27;20972;-79
2022/11/23 06:25:54;;;;;;;0.93;0.30;;;4.30;99.90;;;;;;5133884;27;20941;-80
2022/11/23 06:28:22;;;;;;;0.30;0.30;;;4.30;99.90;;;;;;5134265;27;20450;-79
2022/11/23 06:30:48;;;;;;;0.40;0.30;;;4.30;99.90;;;;;;5134678;27;20454;-79
2022/11/23 06:33:15;;;;;;;0.30;0.20;;;4.30;99.90;;;;;;5138453;27;20446;-79
2022/11/23 06:35:42;;;;;;;0.30;0.30;;;4.30;99.90;;;;;;5138443;27;20447;-80
2022/11/23 06:38:08;;;;;;;0.30;0.30;;;4.30;99.90;;;;;;5138085;27;20812;-79
2022/11/23 06:40:35;;;;;;;0.30;0.30;;;4.30;99.90;;;;;;5138481;27;20454;-80
2022/11/23 06:43:02;;;;;;;0.40;0.30;;;4.30;99.90;;;;;;5138586;27;20439;-80
2022/11/23 06:45:30;;;;;;;0.30;0.20;;;4.30;99.90;;;;;;5138179;27;20832;-79
2022/11/23 06:47:57;;;;;;;0.40;0.30;;;4.20;99.90;;;;;;5138158;27;20501;-79
2022/11/23 06:50:24;;;;;;;0.30;0.20;;;4.20;99.90;;;;;;5138189;27;20449;-80
2022/11/23 06:52:55;;;;;;;0.30;0.20;;;4.20;99.90;;;;;;5138170;27;20438;-79
2022/11/23 06:55:22;;;;;;;0.40;0.30;;;4.10;99.90;;;;;;5138077;27;20471;-79
2022/11/23 06:57:49;;;;;;;0.30;0.30;;;4.10;99.90;;;;;;5137732;27;20435;-79
2022/11/23 07:00:17;;;;;;;0.50;0.30;;;4.10;99.90;;;;;;5137996;27;20481;-79
2022/11/23 07:02:50;;;;;;;0.40;0.30;;;4.10;99.90;;;;;;5137691;27;20450;-79
2022/11/23 07:05:17;;;;;;;0.30;0.30;;;4.00;99.90;;;;;;5138137;27;20467;-80
2022/11/23 07:07:44;;;;;;;0.30;0.30;;;4.00;99.90;;;;;;5137812;27;20471;-79
2022/11/23 07:10:12;;;;;;;0.30;0.20;;;4.00;99.90;;;;;;5137805;27;20449;-79
2022/11/23 07:12:39;;;;;;;0.30;0.20;;;3.90;99.90;;;;;;5137787;27;20442;-79
2022/11/23 07:15:07;;;;;;;0.70;0.37;;;3.90;99.90;;;;;;5137720;27;20851;-79
2022/11/23 07:17:38;;;;;;;0.30;0.20;;;3.90;99.90;;;;;;5137662;27;20445;-79
2022/11/23 07:20:08;;;;;;;0.73;0.40;;;3.80;99.90;;;;;;5137237;27;20483;-79
2022/11/23 07:22:35;;;;;;;0.30;0.20;;;3.80;99.90;;;;;;5137541;27;20447;-79
2022/11/23 07:25:02;;;;;;;0.43;0.40;;;3.80;99.90;;;;;;5137131;27;20462;-79
2022/11/23 07:27:29;;;;;;;0.40;0.30;;;3.70;99.90;;;;;;5137426;27;20485;-79
2022/11/23 07:29:55;;;;;;;0.30;0.20;;;3.80;99.90;;;;;;5137088;27;20959;-79
2022/11/23 07:32:22;;;;;;;0.30;0.30;;;3.70;99.90;;;;;;5137037;27;20965;-79
2022/11/23 07:34:49;;;;;;;0.30;0.30;;;3.70;99.90;;;;;;5137339;27;20497;-79
2022/11/23 07:37:17;;;;;;;0.77;0.30;;;3.80;99.90;;;;;;5136945;27;20960;-79
2022/11/23 07:39:44;;;;;;;0.50;0.30;;;3.90;99.90;;;;;;5137286;27;20446;-79
2022/11/23 07:42:10;;;;;;;0.30;0.30;;;3.90;99.90;;;;;;5136556;27;20443;-79
2022/11/23 07:44:37;;;;;;;0.83;0.30;;;3.90;99.90;;;;;;5137126;27;20458;-79
2022/11/23 07:47:04;;;;;;;0.30;0.30;;;3.90;99.90;;;;;;5137060;27;20478;-79
2022/11/23 07:49:30;;;;;;;0.30;0.20;;;4.00;99.90;;;;;;5137075;27;20449;-79
2022/11/23 07:51:57;;;;;;;0.30;0.30;;;4.00;99.90;;;;;;5136717;27;20450;-79
2022/11/23 07:54:25;;;;;;;0.30;0.30;;;4.00;99.90;;;;;;5136965;27;20463;-79
2022/11/23 07:56:52;;;;;;;0.30;0.30;;;4.10;99.90;;;;;;5136862;27;20441;-79
2022/11/23 07:59:19;;;;;;;0.30;0.30;;;4.10;99.90;;;;;;5136893;27;20470;-79
2022/11/23 08:01:45;;;;;;;0.30;0.30;;;4.20;99.90;;;;;;5136732;27;20454;-79
2022/11/23 08:04:12;;;;;;;0.30;0.30;;;4.20;99.90;;;;;;5136697;27;20470;-79
2022/11/23 08:06:39;;;;;;;0.30;0.30;;;4.20;99.90;;;;;;5136636;27;20493;-79
2022/11/23 08:09:06;;;;;;;0.50;0.50;;;4.30;99.90;;;;;;5136336;27;20814;-79
2022/11/23 08:11:34;;;;;;;0.30;0.30;;;4.30;99.90;;;;;;5136336;27;20443;-77
2022/11/23 08:14:00;;;;;;;0.30;0.30;;;4.40;99.90;;;;;;5136277;27;20467;-80
2022/11/23 08:16:27;;;;;;;0.97;0.60;;;4.40;99.90;;;;;;5136534;27;20443;-80
2022/11/23 08:18:54;;;;;;;0.37;0.30;;;4.50;99.90;;;;;;5136175;27;20565;-80
2022/11/23 08:21:21;;;;;;;0.43;0.43;;;4.50;99.90;;;;;;5136399;27;20435;-79
2022/11/23 08:23:47;;;;;;;0.30;0.20;;;4.60;99.90;;;;;;5135945;27;20815;-79
2022/11/23 08:26:14;;;;;;;0.40;0.40;;;4.60;99.90;;;;;;5136259;27;20853;-79
2022/11/23 08:28:43;;;;;;;0.40;0.33;;;4.70;99.90;;;;;;5135853;27;20989;-79
2022/11/23 08:31:11;;;;;;;0.40;0.30;;;4.80;99.90;;;;;;5136319;27;20443;-79
2022/11/23 08:33:39;;;;;;;0.30;0.30;;;5.00;99.90;;;;;;5136141;27;20470;-79
2022/11/23 08:36:07;;;;;;;0.30;0.20;;;5.50;99.90;;;;;;5135879;27;20449;-79
2022/11/23 08:38:35;;;;;;;0.30;0.30;;;6.10;99.90;;;;;;5135806;27;20443;-77
2022/11/23 08:41:02;;;;;;;0.30;0.30;;;7.00;99.90;;;;;;5136071;27;20447;-77
2022/11/23 08:43:29;;;;;;;0.40;0.30;;;8.20;99.90;;;;;;5135679;27;20982;-77
2022/11/23 08:45:58;;;;;;;0.40;0.30;;;9.30;99.90;;;;;;5136002;27;20442;-77
2022/11/23 08:48:26;;;;;;;2.70;0.40;;;10.40;99.90;;;;;;5135577;27;21013;-77
2022/11/23 08:50:53;;;;;;;0.30;0.30;;;11.50;99.90;;;;;;5135892;27;20500;-77
2022/11/23 08:53:20;;;;;;;0.30;0.30;;;12.30;99.90;;;;;;5135090;27;20446;-77
2022/11/23 08:55:46;;;;;;;0.53;0.40;;;12.10;99.90;;;;;;5135526;27;20447;-77
2022/11/23 08:58:13;;;;;;;0.50;0.40;;;11.90;99.90;;;;;;5135692;27;20438;-77
2022/11/23 09:00:40;;;;;;;0.40;0.30;;;12.10;99.90;;;;;;5135650;27;20445;-77
2022/11/23 09:03:08;;;;;;;0.70;0.53;;;13.50;99.90;;;;;;5135662;27;20446;-77
2022/11/23 09:05:37;;;;;;;0.40;0.40;;;14.80;99.90;;;;;;5135568;27;20488;-77
2022/11/23 09:08:05;;;;;;;0.40;0.40;;;16.20;99.90;;;;;;5135404;27;20482;-77
2022/11/23 09:10:31;;;;;;;0.60;0.60;;;17.00;99.90;;;;;;5135472;27;20451;-77
2022/11/23 09:12:58;;;;;;;0.40;0.30;;;17.40;99.90;;;;;;5135400;27;20461;-77
2022/11/23 09:15:25;;;;;;;0.40;0.40;;;16.60;98.50;;;;;;5135887;27;20467;-77
2022/11/23 09:17:52;;;;;;;2.00;0.87;;;16.70;98.40;;;;;;5135338;27;20438;-76
2022/11/23 09:20:20;;;;;;;0.70;0.60;;;16.70;98.70;;;;;;5134915;27;20478;-77
2022/11/23 09:22:51;;;;;;;2.47;0.90;;;16.10;97.60;;;;;;5135281;27;20446;-77
2022/11/23 09:25:18;;;;;;;1.13;0.40;;;15.70;97.30;;;;;;5134818;27;20463;-77
2022/11/23 09:27:45;;;;;;;1.00;0.40;;;15.20;98.20;;;;;;5134778;27;20991;-77
2022/11/23 09:30:12;;;;;;;0.40;0.30;;;15.00;99.20;;;;;;5134813;27;20915;-77
2022/11/23 09:32:39;;;;;;;0.37;0.30;;;14.80;98.70;;;;;;5135050;27;20443;-76
2022/11/23 09:35:07;;;;;;;0.40;0.30;;;14.20;99.10;;;;;;5134977;27;20463;-77
2022/11/23 09:37:35;;;;;;;0.70;0.40;;;13.90;99.60;;;;;;5135007;27;20482;-76
2022/11/23 09:40:02;;;;;;;0.70;0.70;;;14.00;99.80;;;;;;5135008;27;20449;-77
2022/11/23 09:42:55;;;;;;;0.40;0.30;;;14.60;99.20;;;;;;5134964;27;20449;-76
2022/11/23 09:45:30;;;;;;;0.37;0.30;;;15.50;99.00;;;;;;5134879;27;20463;-77
2022/11/23 09:48:18;;;;;;;0.50;0.40;;;16.00;97.00;;;;;;5134487;27;20972;-77
2022/11/23 09:50:47;;;;;;;0.40;0.37;;;16.90;95.90;;;;;;5134504;27;20910;-77
2022/11/23 09:53:19;;;;;;;0.60;0.40;;;17.60;93.20;;;;;;5134689;27;20451;-77
2022/11/23 09:55:48;;;;;;;0.40;0.30;;;17.70;92.80;;;;;;5134748;27;20435;-77
2022/11/23 09:58:18;;;;;;;0.60;0.53;;;17.10;92.50;;;;;;5134636;27;20466;-80
2022/11/23 10:00:48;;;;;;;0.70;0.50;;;16.50;93.00;;;;;;5134668;27;20454;-80
2022/11/23 10:03:17;;;;;;;1.07;1.07;;;15.50;93.60;;;;;;5134461;27;20524;-79
2022/11/23 10:05:53;;;;;;;2.00;0.50;;;14.20;94.20;;;;;;5134041;27;20534;-79
2022/11/23 10:08:31;;;;;;;0.50;0.50;;;12.80;96.40;;;;;;5134240;27;20988;-79
2022/11/23 10:11:07;;;;;;;0.60;0.60;;;11.60;99.00;;;;;;5134722;27;20435;-80
2022/11/23 10:13:38;;;;;;;1.50;0.97;;;10.70;99.90;;;;;;5134541;27;20469;-79
2022/11/23 10:16:17;;;;;;;0.40;0.40;;;10.10;99.90;;;;;;5134508;27;20446;-79
2022/11/23 10:18:52;;;;;;;6.20;1.10;;;9.70;99.90;;;;;;5134470;27;20454;-79
2022/11/23 10:21:28;;;;;;;0.40;0.40;;;9.50;99.90;;;;;;5134453;27;20445;-77
2022/11/23 10:24:05;;;;;;;0.50;0.50;;;9.30;99.90;;;;;;5134355;27;20463;-76
2022/11/23 10:26:34;;;;;;;4.00;0.70;;;9.10;99.90;;;;;;5134395;27;20431;-76
2022/11/23 10:29:13;;;;;;;0.50;0.50;;;9.00;99.90;;;;;;5133941;27;20993;-77
2022/11/23 10:31:43;;;;;;;2.60;0.60;;;9.10;99.90;;;;;;5134364;27;20475;-77
2022/11/23 10:34:13;;;;;;;0.50;0.50;;;9.20;99.90;;;;;;5133854;27;20471;-77
2022/11/23 10:36:41;;;;;;;0.30;0.30;;;9.20;99.90;;;;;;5134261;27;20458;-76
2022/11/23 10:39:21;;;;;;;0.40;0.40;;;9.20;99.90;;;;;;5134253;27;20443;-76
2022/11/23 10:41:49;;;;;;;0.93;0.50;;;9.10;99.90;;;;;;5134189;27;20422;-76
2022/11/23 10:44:31;;;;;;;0.30;0.30;;;9.00;99.90;;;;;;5134052;27;20470;-77
2022/11/23 10:46:58;;;;;;;0.50;0.40;;;8.90;99.90;;;;;;5134180;27;20427;-77
2022/11/23 10:49:28;;;;;;;0.30;0.30;;;8.90;99.90;;;;;;5134027;27;20481;-76
2022/11/23 10:51:57;;;;;;;0.70;0.30;;;8.90;99.90;;;;;;5134124;27;20490;-77
2022/11/23 10:54:29;;;;;;;0.40;0.30;;;8.90;99.90;;;;;;5133984;27;20507;-76
2022/11/23 10:56:56;;;;;;;0.40;0.30;;;8.80;99.90;;;;;;5134112;27;20423;-77
2022/11/23 10:59:41;;;;;;;0.30;0.30;;;8.70;99.90;;;;;;5133743;27;20443;-77
2022/11/23 11:02:19;;;;;;;0.70;0.30;;;8.60;99.90;;;;;;5134056;27;20438;-77
2022/11/23 11:04:47;;;;;;;0.30;0.30;;;8.70;99.90;;;;;;5133889;27;20465;-76
2022/11/23 11:07:21;;;;;;;0.50;0.40;;;8.70;99.90;;;;;;5133904;27;20450;-76
2022/11/23 11:09:54;;;;;;;2.93;0.57;;;8.70;99.90;;;;;;5134002;27;20431;-76
2022/11/23 11:12:21;;;;;;;0.60;0.40;;;8.90;99.90;;;;;;5133987;27;20427;-78
2022/11/23 11:14:56;;;;;;;0.40;0.40;;;8.90;99.90;;;;;;5133777;27;20467;-78
2022/11/23 11:17:27;;;;;;;1.47;0.87;;;8.80;99.90;;;;;;5135214;27;20430;-78
2022/11/23 11:19:54;;;;;;;0.50;0.50;;;8.80;99.90;;;;;;5137463;27;20466;-78
2022/11/23 11:22:34;;;;;;;1.03;0.40;;;8.80;99.90;;;;;;5137639;27;20442;-78
2022/11/23 11:25:04;;;;;;;0.47;0.30;;;8.70;99.90;;;;;;5137521;27;20470;-78
2022/11/23 11:27:31;;;;;;;0.50;0.40;;;8.80;99.90;;;;;;5137770;27;20484;-78
2022/11/23 11:30:04;;;;;;;0.43;0.33;;;8.80;99.90;;;;;;5137522;27;20525;-78
2022/11/23 11:32:40;;;;;;;0.33;0.33;;;8.70;99.90;;;;;;5137497;27;20530;-78
2022/11/23 11:35:12;;;;;;;0.40;0.30;;;8.80;99.90;;;;;;5137383;27;20469;-79
2022/11/23 11:37:43;;;;;;;0.60;0.40;;;8.70;99.90;;;;;;5137847;27;20434;-80
2022/11/23 11:40:18;;;;;;;0.50;0.50;;;8.60;99.90;;;;;;5137598;27;20427;-80
2022/11/23 11:42:50;;;;;;;0.40;0.40;;;8.70;99.90;;;;;;5137151;27;20789;-79
2022/11/23 11:45:22;;;;;;;1.47;0.50;;;8.70;99.90;;;;;;5137032;27;20986;-80
2022/11/23 11:47:55;;;;;;;1.03;0.57;;;8.60;99.90;;;;;;5137160;27;20471;-78
2022/11/23 11:50:26;;;;;;;0.43;0.43;;;8.60;99.90;;;;;;5137448;27;20430;-78
2022/11/23 11:52:59;;;;;;;2.00;0.57;;;8.50;99.90;;;;;;5137177;27;20505;-78
2022/11/23 11:55:35;;;;;;;1.37;0.77;;;8.50;99.90;;;;;;5137309;27;20474;-78
2022/11/23 11:58:08;;;;;;;3.73;0.60;;;8.30;99.90;;;;;;5136980;27;20423;-78
2022/11/23 12:00:38;;;;;;;1.77;0.40;;;8.30;99.90;;;;;;5136967;27;20427;-78
2022/11/23 12:03:14;;;;;;;0.60;0.40;;;8.20;99.90;;;;;;5136640;27;20518;-78
2022/11/23 12:05:47;;;;;;;0.30;0.20;;;8.20;99.90;;;;;;5136785;27;20950;-78
2022/11/23 12:08:17;;;;;;;0.30;0.30;;;8.30;99.90;;;;;;5136343;27;20874;-77
2022/11/23 12:10:50;;;;;;;0.40;0.40;;;8.30;99.90;;;;;;5136752;27;20423;-77
2022/11/23 12:13:19;;;;;;;0.87;0.50;;;8.20;99.90;;;;;;5136611;27;20442;-77
2022/11/23 12:15:49;;;;;;;1.90;0.50;;;8.20;99.90;;;;;;5136637;27;20495;-77
2022/11/23 12:18:30;;;;;;;0.63;0.30;;;8.10;99.90;;;;;;5136237;27;20450;-77
2022/11/23 12:21:02;;;;;;;4.07;0.70;;;8.00;99.90;;;;;;5136235;27;20932;-77
2022/11/23 12:23:38;;;;;;;0.30;0.30;;;8.00;99.90;;;;;;5136459;27;20426;-78
2022/11/23 12:26:19;;;;;;;0.60;0.43;;;8.00;99.90;;;;;;5136492;27;20425;-78
2022/11/23 12:28:59;;;;;;;0.30;0.20;;;8.10;99.90;;;;;;5136252;27;20466;-78
2022/11/23 12:31:39;;;;;;;0.97;0.43;;;8.10;99.90;;;;;;5136366;27;20435;-78
2022/11/23 12:34:36;;;;;;;0.30;0.30;;;8.20;99.90;;;;;;5136219;27;20470;-77
2022/11/23 12:37:36;;;;;;;0.30;0.30;;;8.10;99.90;;;;;;5136258;27;20531;-78
2022/11/23 12:40:23;;;;;;;0.33;0.30;;;8.10;99.90;;;;;;5135921;27;20434;-78
2022/11/23 12:43:00;;;;;;;0.47;0.47;;;8.10;99.90;;;;;;5133949;27;20458;-78
2022/11/23 12:45:50;;;;;;;0.70;0.40;;;8.00;99.90;;;;;;5136041;27;20465;-78
2022/11/23 12:48:45;;;;;;;0.30;0.30;;;8.00;99.90;;;;;;5135634;27;20978;-78
2022/11/23 12:51:24;;;;;;;0.30;0.30;;;8.00;99.90;;;;;;5136000;27;20438;-79
2022/11/23 12:54:02;;;;;;;1.80;0.50;;;8.00;99.90;;;;;;5135861;27;20467;-78
2022/11/23 12:56:50;;;;;;;0.30;0.20;;;8.00;99.90;;;;;;5135862;27;20430;-77
2022/11/23 12:59:19;;;;;;;0.60;0.60;;;8.00;99.90;;;;;;5135810;27;20429;-77
2022/11/23 13:01:51;;;;;;;0.80;0.53;;;8.00;99.90;;;;;;5135677;27;20447;-77
2022/11/23 13:04:59;;;;;;;0.30;0.30;;;7.90;99.90;;;;;;5135604;27;20819;-77
2022/11/23 13:08:00;;;;;;;0.30;0.30;;;7.90;99.90;;;;;;5101405;27;20443;-78